Time;durP1;ratioP1;P1;durP2;ratioP2;P2;SDS_P1;SDS_P2;PMS_P1;PMS_P2;Temp;Humidity;BMP_temperature;BMP_pressure;BME280_temperature;BME280_humidity;BME280_pressure;Samples;Min_cycle;Max_cycle;Signal;HPM_P1;HPM_P2
2024/03/13 00:00:10;;;;;;;0.30;0.20;;;;;;;8.76;100.00;100129.63;5031655;28;20480;-51
2024/03/13 00:02:37;;;;;;;0.30;0.20;;;;;;;8.81;100.00;100114.50;5028616;28;20955;-51
2024/03/13 00:05:05;;;;;;;0.30;0.20;;;;;;;8.71;100.00;100121.78;5023042;28;20458;-51
2024/03/13 00:07:31;;;;;;;0.30;0.20;;;;;;;8.80;100.00;100118.06;5018692;28;21103;-50
2024/03/13 00:10:00;;;;;;;0.30;0.20;;;;;;;8.84;100.00;100125.03;5031982;28;20517;-51
2024/03/13 00:12:28;;;;;;;0.30;0.17;;;;;;;8.81;100.00;100120.69;5027715;28;20602;-51
2024/03/13 00:14:56;;;;;;;0.30;0.20;;;;;;;8.68;100.00;100123.66;5005872;28;20451;-51
2024/03/13 00:17:23;;;;;;;0.30;0.20;;;;;;;8.71;100.00;100119.16;5027371;28;20461;-51
2024/03/13 00:19:51;;;;;;;0.30;0.20;;;;;;;8.75;100.00;100120.81;5023999;28;20562;-52
2024/03/13 00:22:20;;;;;;;0.30;0.20;;;;;;;8.84;100.00;100122.38;5026748;28;20651;-51
2024/03/13 00:24:48;;;;;;;0.30;0.20;;;;;;;8.77;100.00;100120.75;5024324;28;20972;-51
2024/03/13 00:27:15;;;;;;;0.30;0.20;;;;;;;8.84;100.00;100115.28;5025856;28;20857;-51
2024/03/13 00:29:47;;;;;;;0.30;0.20;;;;;;;8.81;100.00;100117.16;5024808;28;20948;-51
2024/03/13 00:32:16;;;;;;;0.30;0.20;;;;;;;8.87;100.00;100111.69;5024584;28;20514;-51
2024/03/13 00:34:46;;;;;;;0.30;0.20;;;;;;;8.84;100.00;100109.13;5028612;28;20871;-51
2024/03/13 00:37:13;;;;;;;0.30;0.20;;;;;;;8.97;100.00;100117.66;5023817;28;21005;-51
2024/03/13 00:39:43;;;;;;;0.30;0.20;;;;;;;8.86;100.00;100120.56;5036911;28;20451;-51
2024/03/13 00:42:13;;;;;;;0.30;0.20;;;;;;;8.99;100.00;100121.13;5037686;28;20459;-52
2024/03/13 00:44:44;;;;;;;0.30;0.20;;;;;;;8.95;100.00;100123.00;5028593;28;20547;-51
2024/03/13 00:47:11;;;;;;;0.30;0.20;;;;;;;8.90;100.00;100125.72;5025543;28;20454;-51
2024/03/13 00:49:38;;;;;;;0.30;0.20;;;;;;;8.96;100.00;100124.72;5032220;28;20452;-50
2024/03/13 00:52:04;;;;;;;0.30;0.20;;;;;;;8.99;100.00;100116.69;5035157;28;20486;-51
2024/03/13 00:54:31;;;;;;;0.30;0.20;;;;;;;8.90;100.00;100122.22;5035292;28;20451;-52
2024/03/13 00:56:59;;;;;;;0.30;0.20;;;;;;;9.01;100.00;100120.16;5024684;28;20488;-51
2024/03/13 00:59:29;;;;;;;0.30;0.20;;;;;;;8.83;100.00;100124.16;5032571;28;20498;-51
2024/03/13 01:01:56;;;;;;;0.30;0.20;;;;;;;8.81;100.00;100122.47;5035040;28;20479;-50
2024/03/13 01:04:25;;;;;;;0.30;0.20;;;;;;;8.92;100.00;100124.84;5021651;28;20447;-51
2024/03/13 01:06:52;;;;;;;0.30;0.20;;;;;;;8.93;100.00;100122.16;5022281;28;20456;-51
2024/03/13 01:09:19;;;;;;;0.30;0.20;;;;;;;8.92;100.00;100115.13;5034122;28;20514;-51
2024/03/13 01:11:46;;;;;;;0.43;0.37;;;;;;;8.93;100.00;100119.50;5022408;28;20971;-51
2024/03/13 01:14:13;;;;;;;0.30;0.20;;;;;;;8.87;100.00;100122.28;5027954;28;20456;-51
2024/03/13 01:16:41;;;;;;;0.30;0.20;;;;;;;9.04;100.00;100130.69;5027702;28;20495;-51
2024/03/13 01:19:07;;;;;;;0.30;0.20;;;;;;;8.96;100.00;100122.06;5028190;28;20448;-51
2024/03/13 01:21:34;;;;;;;0.30;0.20;;;;;;;9.06;100.00;100122.72;5027673;28;21070;-50
2024/03/13 01:24:00;;;;;;;0.63;0.63;;;;;;;8.93;100.00;100114.22;5028135;28;20544;-51
2024/03/13 01:26:26;;;;;;;0.30;0.20;;;;;;;8.88;100.00;100116.94;5027765;28;20539;-51
2024/03/13 01:28:53;;;;;;;0.30;0.20;;;;;;;8.94;100.00;100121.25;5027793;28;20484;-51
2024/03/13 01:31:21;;;;;;;0.30;0.20;;;;;;;9.04;100.00;100120.09;5027734;28;20529;-51
2024/03/13 01:33:48;;;;;;;0.30;0.20;;;;;;;9.01;100.00;100120.16;5027439;28;20532;-51
2024/03/13 01:36:17;;;;;;;0.30;0.20;;;;;;;8.99;100.00;100108.75;5020151;28;20444;-51
2024/03/13 01:38:44;;;;;;;0.30;0.20;;;;;;;9.01;100.00;100106.91;5034470;28;20454;-51
2024/03/13 01:55:25;;;;;;;0.57;0.57;;;;;;;9.21;100.00;100109.09;5014579;28;20452;-51
2024/03/13 02:03:14;;;;;;;0.30;0.20;;;;;;;9.27;100.00;100098.28;5020743;28;20469;-50
2024/03/13 02:05:45;;;;;;;0.30;0.20;;;;;;;9.12;100.00;100101.34;5032143;28;20802;-51
2024/03/13 02:08:15;;;;;;;0.30;0.20;;;;;;;9.28;100.00;100088.56;5033853;28;20494;-51
2024/03/13 02:10:42;;;;;;;0.30;0.20;;;;;;;9.37;100.00;100104.25;5028830;28;20563;-51
2024/03/13 02:13:12;;;;;;;0.30;0.20;;;;;;;9.38;100.00;100092.72;5033720;28;20460;-51
2024/03/13 02:15:41;;;;;;;0.30;0.20;;;;;;;9.40;100.00;100098.84;5020231;28;20452;-51
2024/03/13 02:18:27;;;;;;;0.30;0.20;;;;;;;9.35;100.00;100096.31;5033784;28;20460;-51
2024/03/13 02:20:58;;;;;;;0.30;0.20;;;;;;;9.35;100.00;100090.16;5013806;28;20468;-51
2024/03/13 02:23:29;;;;;;;0.30;0.20;;;;;;;9.43;100.00;100090.78;5028678;28;20475;-51
2024/03/13 02:25:56;;;;;;;0.30;0.20;;;;;;;9.47;100.00;100096.00;5024256;28;20460;-50
2024/03/13 02:28:35;;;;;;;0.30;0.20;;;;;;;9.56;100.00;100094.84;5029285;28;20492;-51
2024/03/13 02:31:02;;;;;;;0.30;0.20;;;;;;;9.55;100.00;100095.78;5022859;28;20496;-51
2024/03/13 02:33:28;;;;;;;0.30;0.20;;;;;;;9.54;100.00;100096.69;5030749;28;20461;-51
2024/03/13 02:35:55;;;;;;;0.30;0.20;;;;;;;9.61;100.00;100100.06;5022431;28;20533;-51
2024/03/13 02:38:21;;;;;;;0.30;0.20;;;;;;;9.53;100.00;100100.25;5030618;28;20966;-50
2024/03/13 02:40:48;;;;;;;0.30;0.20;;;;;;;9.52;100.00;100092.34;5043589;28;20507;-51
2024/03/13 02:43:14;;;;;;;0.30;0.20;;;;;;;9.41;100.00;100103.22;5021527;28;20539;-51
2024/03/13 02:45:42;;;;;;;0.30;0.20;;;;;;;9.47;100.00;100101.31;5033106;28;20933;-51
2024/03/13 02:48:11;;;;;;;0.30;0.20;;;;;;;9.50;100.00;100095.03;5019530;28;20542;-50
2024/03/13 02:50:42;;;;;;;0.30;0.20;;;;;;;9.52;100.00;100095.00;5032702;28;20526;-52
2024/03/13 02:53:09;;;;;;;0.30;0.20;;;;;;;9.49;100.00;100098.59;5032816;28;20455;-51
2024/03/13 02:55:36;;;;;;;0.30;0.20;;;;;;;9.50;100.00;100103.00;5032674;28;20534;-51
2024/03/13 02:58:03;;;;;;;0.30;0.20;;;;;;;9.26;100.00;100104.50;5027352;28;20893;-50
2024/03/13 03:00:30;;;;;;;0.40;0.40;;;;;;;9.22;100.00;100102.88;5025318;28;20487;-51
2024/03/13 03:02:57;;;;;;;0.30;0.20;;;;;;;9.22;100.00;100109.94;5026281;28;20452;-51
2024/03/13 03:05:24;;;;;;;0.30;0.20;;;;;;;9.22;100.00;100105.50;5025659;28;20473;-50
2024/03/13 03:07:51;;;;;;;0.30;0.20;;;;;;;9.31;100.00;100109.69;5023001;28;20551;-51
2024/03/13 03:10:18;;;;;;;0.30;0.20;;;;;;;9.26;100.00;100104.50;5032511;28;20471;-50
2024/03/13 03:12:45;;;;;;;0.30;0.20;;;;;;;9.30;100.00;100106.16;5025725;28;20460;-51
2024/03/13 03:15:11;;;;;;;0.30;0.20;;;;;;;9.21;100.00;100106.44;5026190;28;21002;-50
2024/03/13 03:17:38;;;;;;;0.30;0.20;;;;;;;9.34;100.00;100112.28;5025549;28;20460;-51
2024/03/13 03:20:06;;;;;;;0.30;0.20;;;;;;;9.29;100.00;100106.22;5017361;28;20476;-51
2024/03/13 03:22:32;;;;;;;0.30;0.20;;;;;;;9.28;100.00;100108.00;5020147;28;20452;-51
2024/03/13 03:24:59;;;;;;;0.30;0.20;;;;;;;9.44;100.00;100111.09;5032052;28;20455;-51
2024/03/13 03:27:26;;;;;;;0.30;0.20;;;;;;;9.37;100.00;100107.75;5006545;28;20975;-51
2024/03/13 03:29:53;;;;;;;0.30;0.20;;;;;;;9.17;100.00;100107.38;5025547;28;20490;-50
2024/03/13 03:32:19;;;;;;;0.30;0.20;;;;;;;9.33;100.00;100105.25;5032292;28;20517;-51
2024/03/13 03:34:46;;;;;;;0.30;0.20;;;;;;;9.27;100.00;100102.72;5024603;28;20447;-51
2024/03/13 03:37:16;;;;;;;0.30;0.20;;;;;;;9.34;100.00;100097.25;5020006;28;20551;-50
2024/03/13 03:39:43;;;;;;;0.30;0.20;;;;;;;9.33;100.00;100102.59;5027688;28;20456;-51
2024/03/13 03:42:09;;;;;;;0.30;0.20;;;;;;;9.31;100.00;100107.91;5034542;28;20448;-51
2024/03/13 03:44:36;;;;;;;0.30;0.20;;;;;;;9.32;100.00;100109.69;5027974;28;20506;-51
2024/03/13 03:47:03;;;;;;;0.30;0.20;;;;;;;9.33;100.00;100106.09;5023172;28;20503;-51
2024/03/13 03:49:30;;;;;;;0.30;0.20;;;;;;;9.32;100.00;100106.13;5027956;28;20487;-51
2024/03/13 03:51:56;;;;;;;0.30;0.20;;;;;;;9.26;100.00;100101.84;5021565;28;21033;-52
2024/03/13 03:54:23;;;;;;;0.30;0.20;;;;;;;9.28;100.00;100104.47;5032010;28;20490;-50
2024/03/13 03:56:50;;;;;;;0.30;0.20;;;;;;;9.25;100.00;100104.56;5022741;28;20487;-51
2024/03/13 03:59:17;;;;;;;0.30;0.20;;;;;;;9.28;100.00;100110.66;5028555;28;20530;-51
2024/03/13 04:01:43;;;;;;;0.30;0.20;;;;;;;9.31;100.00;100113.22;5031070;28;20507;-50
2024/03/13 04:05:06;;;;;;;0.30;0.20;;;;;;;9.19;100.00;100116.22;5027220;28;20941;-48
2024/03/13 04:07:33;;;;;;;0.30;0.20;;;;;;;9.17;100.00;100112.69;5030575;28;20452;-47
2024/03/13 04:10:00;;;;;;;0.30;0.20;;;;;;;9.23;100.00;100107.25;5035367;28;20487;-48
2024/03/13 04:12:27;;;;;;;0.30;0.20;;;;;;;9.24;100.00;100116.06;5032802;28;21026;-47
2024/03/13 04:14:54;;;;;;;0.30;0.20;;;;;;;9.20;100.00;100118.81;5016374;28;20448;-48
2024/03/13 04:17:22;;;;;;;0.30;0.20;;;;;;;9.27;100.00;100116.00;5027836;28;20505;-48
2024/03/13 04:19:49;;;;;;;0.30;0.20;;;;;;;9.32;100.00;100116.72;5023871;28;20456;-48
2024/03/13 04:22:16;;;;;;;0.30;0.20;;;;;;;9.19;100.00;100117.06;5035201;28;20483;-48
2024/03/13 04:24:43;;;;;;;0.30;0.20;;;;;;;9.26;100.00;100120.44;5022539;28;20458;-48
2024/03/13 04:27:10;;;;;;;0.30;0.20;;;;;;;9.30;100.00;100115.91;5033986;28;20447;-48
2024/03/13 04:29:36;;;;;;;0.30;0.20;;;;;;;9.30;100.00;100127.38;5024168;28;20488;-48
2024/03/13 04:32:13;;;;;;;0.40;0.30;;;;;;;9.35;100.00;100132.59;5029146;28;20448;-49
2024/03/13 04:34:40;;;;;;;0.30;0.20;;;;;;;9.27;100.00;100135.44;5029059;28;20509;-49
2024/03/13 04:37:06;;;;;;;0.30;0.20;;;;;;;9.34;100.00;100138.81;5022307;28;20457;-48
2024/03/13 04:39:33;;;;;;;0.30;0.20;;;;;;;9.37;100.00;100139.59;5036185;28;20971;-47
2024/03/13 04:42:00;;;;;;;0.30;0.20;;;;;;;9.40;100.00;100139.50;5040561;28;20504;-47
2024/03/13 04:44:28;;;;;;;0.30;0.20;;;;;;;9.40;100.00;100138.63;5029695;28;20506;-48
2024/03/13 04:46:54;;;;;;;0.30;0.20;;;;;;;9.35;100.00;100130.81;5028409;28;20459;-48
2024/03/13 04:49:21;;;;;;;0.30;0.20;;;;;;;9.35;100.00;100135.25;5029496;28;20842;-49
2024/03/13 04:51:47;;;;;;;0.30;0.20;;;;;;;9.38;100.00;100146.63;5035014;28;20467;-48
2024/03/13 04:54:14;;;;;;;0.30;0.20;;;;;;;9.35;100.00;100144.06;5035570;28;20455;-48
2024/03/13 04:56:41;;;;;;;0.30;0.20;;;;;;;9.30;100.00;100139.78;5028344;28;20452;-48
2024/03/13 04:59:07;;;;;;;0.30;0.20;;;;;;;9.28;100.00;100146.91;5029606;28;20447;-48
2024/03/13 05:01:34;;;;;;;0.30;0.20;;;;;;;9.27;100.00;100147.81;5027830;28;20487;-48
2024/03/13 05:04:00;;;;;;;0.30;0.20;;;;;;;9.26;100.00;100148.72;5029498;28;20944;-48
2024/03/13 05:06:27;;;;;;;0.30;0.20;;;;;;;9.24;100.00;100150.56;5027164;28;20847;-47
2024/03/13 05:08:54;;;;;;;0.30;0.20;;;;;;;9.27;100.00;100143.38;5029581;28;20487;-48
2024/03/13 05:11:21;;;;;;;0.30;0.20;;;;;;;9.23;100.00;100159.41;5026735;28;20479;-47
2024/03/13 05:13:48;;;;;;;0.30;0.20;;;;;;;9.22;100.00;100153.25;5029868;28;20448;-47
2024/03/13 05:16:15;;;;;;;0.30;0.20;;;;;;;9.28;100.00;100160.16;5026497;28;20456;-48
2024/03/13 05:18:42;;;;;;;0.30;0.20;;;;;;;9.24;100.00;100154.06;5028996;28;20932;-48
2024/03/13 05:21:12;;;;;;;0.30;0.20;;;;;;;9.27;100.00;100161.94;5025715;28;20472;-47
2024/03/13 05:23:39;;;;;;;0.30;0.20;;;;;;;9.26;100.00;100165.50;5030419;28;20820;-47
2024/03/13 05:26:06;;;;;;;0.30;0.20;;;;;;;9.32;100.00;100169.78;5025668;28;20458;-48
2024/03/13 05:28:32;;;;;;;0.30;0.20;;;;;;;9.27;100.00;100172.56;5030264;28;20498;-47
2024/03/13 05:30:59;;;;;;;0.30;0.20;;;;;;;9.25;100.00;100169.06;5025505;28;20468;-48
2024/03/13 05:33:26;;;;;;;0.30;0.20;;;;;;;9.24;100.00;100174.44;5012598;28;20947;-48
2024/03/13 05:35:52;;;;;;;0.30;0.20;;;;;;;9.16;100.00;100170.16;5025325;28;20872;-47
2024/03/13 05:38:19;;;;;;;0.30;0.20;;;;;;;9.26;100.00;100170.81;5030465;28;20447;-48
2024/03/13 05:40:47;;;;;;;0.30;0.20;;;;;;;9.28;100.00;100168.13;5045267;28;20842;-47
2024/03/13 05:43:13;;;;;;;0.30;0.20;;;;;;;9.33;100.00;100174.19;5023035;28;20451;-48
2024/03/13 05:45:40;;;;;;;0.30;0.20;;;;;;;9.41;100.00;100170.44;5034283;28;20459;-49
2024/03/13 05:48:08;;;;;;;0.30;0.20;;;;;;;9.29;100.00;100172.50;5020836;28;20502;-48
2024/03/13 05:50:34;;;;;;;0.30;0.20;;;;;;;9.37;100.00;100183.81;5033981;28;20494;-48
2024/03/13 05:53:02;;;;;;;0.30;0.20;;;;;;;9.37;100.00;100184.69;5034129;28;20466;-47
2024/03/13 05:55:31;;;;;;;0.30;0.20;;;;;;;9.41;100.00;100183.69;5034065;28;20483;-48
2024/03/13 05:57:57;;;;;;;0.30;0.20;;;;;;;9.43;100.00;100191.59;5020530;28;20447;-48
2024/03/13 06:00:25;;;;;;;0.30;0.20;;;;;;;9.43;100.00;100187.16;5033658;28;20472;-48
2024/03/13 06:02:52;;;;;;;0.30;0.20;;;;;;;9.48;100.00;100187.94;5020416;28;21001;-47
2024/03/13 06:05:19;;;;;;;0.30;0.20;;;;;;;9.55;100.00;100188.63;5033893;28;20448;-48
2024/03/13 06:07:46;;;;;;;0.30;0.20;;;;;;;9.49;100.00;100192.34;5020750;28;20825;-47
2024/03/13 06:10:14;;;;;;;0.30;0.20;;;;;;;9.56;100.00;100192.16;5033519;28;20514;-48
2024/03/13 06:12:41;;;;;;;0.30;0.20;;;;;;;9.54;100.00;100196.63;5020234;28;20521;-48
2024/03/13 06:15:07;;;;;;;0.30;0.20;;;;;;;9.60;100.00;100199.16;5033740;28;20573;-48
2024/03/13 06:17:34;;;;;;;0.30;0.20;;;;;;;9.53;100.00;100195.78;5020120;28;20535;-48
2024/03/13 06:20:12;;;;;;;19.80;8.40;;;;;;;9.44;100.00;100196.00;5033834;28;20468;-47
2024/03/13 06:22:42;;;;;;;0.30;0.20;;;;;;;9.50;100.00;100209.13;5013925;28;20452;-47
2024/03/13 06:25:09;;;;;;;0.30;0.20;;;;;;;9.50;100.00;100207.34;5028269;28;20528;-47
2024/03/13 06:27:36;;;;;;;0.30;0.20;;;;;;;9.48;100.00;100210.94;5025530;28;20430;-47
2024/03/13 06:30:03;;;;;;;0.30;0.20;;;;;;;9.48;100.00;100208.28;5028050;28;20491;-49
2024/03/13 06:32:30;;;;;;;0.30;0.20;;;;;;;9.53;100.00;100209.03;5024971;28;20448;-47
2024/03/13 06:35:02;;;;;;;0.30;0.20;;;;;;;9.55;100.00;100216.97;5026734;28;21002;-48
2024/03/13 06:37:29;;;;;;;0.30;0.20;;;;;;;9.54;100.00;100217.88;5022541;28;20459;-48
2024/03/13 06:39:59;;;;;;;3.37;3.27;;;;;;;9.62;100.00;100218.56;5037112;28;20458;-48
2024/03/13 06:42:26;;;;;;;0.30;0.20;;;;;;;9.63;100.00;100215.84;5031233;28;21010;-47
2024/03/13 06:44:52;;;;;;;0.30;0.20;;;;;;;9.64;100.00;100224.69;5031168;28;20505;-48
2024/03/13 06:47:21;;;;;;;0.40;0.20;;;;;;;9.57;100.00;100218.66;5021727;28;20946;-47
2024/03/13 06:49:48;;;;;;;0.30;0.20;;;;;;;9.57;100.00;100213.34;5031130;28;20491;-49
2024/03/13 06:52:14;;;;;;;0.30;0.20;;;;;;;9.54;100.00;100213.44;5032908;28;20463;-49
2024/03/13 06:54:42;;;;;;;1.60;1.53;;;;;;;9.57;100.00;100212.47;5032748;28;20971;-47
2024/03/13 06:57:14;;;;;;;0.30;0.20;;;;;;;9.64;100.00;100216.72;5021534;28;20453;-47
2024/03/13 06:59:44;;;;;;;0.30;0.20;;;;;;;9.76;100.00;100213.75;5031814;28;20460;-48
2024/03/13 07:02:14;;;;;;;0.30;0.20;;;;;;;9.80;100.00;100218.94;5020005;28;20452;-48
2024/03/13 07:04:42;;;;;;;0.30;0.20;;;;;;;9.78;100.00;100219.91;5019199;28;20447;-48
2024/03/13 07:07:08;;;;;;;0.30;0.20;;;;;;;9.89;100.00;100219.63;5019122;28;20459;-48
2024/03/13 07:09:36;;;;;;;0.30;0.20;;;;;;;9.85;100.00;100224.09;5032510;28;20492;-48
2024/03/13 07:12:04;;;;;;;0.30;0.20;;;;;;;9.89;100.00;100219.63;5001855;28;20487;-48
2024/03/13 07:14:31;;;;;;;0.30;0.20;;;;;;;9.90;100.00;100221.34;5032765;28;20448;-48
2024/03/13 07:16:57;;;;;;;0.30;0.20;;;;;;;9.94;100.00;100228.31;5019076;28;20601;-48
2024/03/13 07:19:24;;;;;;;0.30;0.20;;;;;;;10.00;100.00;100228.13;5032438;28;20464;-48
2024/03/13 07:21:51;;;;;;;0.30;0.20;;;;;;;10.03;100.00;100230.72;5018828;28;20551;-48
2024/03/13 07:24:17;;;;;;;0.30;0.20;;;;;;;10.05;100.00;100231.56;5032408;28;20933;-48
2024/03/13 07:26:44;;;;;;;0.30;0.20;;;;;;;10.17;100.00;100236.53;5019262;28;20448;-48
2024/03/13 07:29:10;;;;;;;0.30;0.20;;;;;;;10.19;100.00;100239.16;5032482;28;20568;-48
2024/03/13 07:31:40;;;;;;;0.30;0.20;;;;;;;10.13;100.00;100234.84;5019161;28;20469;-48
2024/03/13 07:34:09;;;;;;;0.30;0.20;;;;;;;10.07;100.00;100243.88;5032306;28;20448;-49
2024/03/13 07:36:38;;;;;;;0.30;0.20;;;;;;;10.20;100.00;100238.22;5019196;28;20459;-48
2024/03/13 07:39:10;;;;;;;0.30;0.20;;;;;;;10.24;100.00;100238.13;5032291;28;20451;-48
2024/03/13 07:41:39;;;;;;;0.30;0.20;;;;;;;10.16;100.00;100241.88;5040660;28;20468;-49
2024/03/13 07:44:09;;;;;;;0.30;0.20;;;;;;;10.06;100.00;100239.47;5023284;28;20866;-48
2024/03/13 07:46:35;;;;;;;0.30;0.20;;;;;;;10.07;100.00;100245.66;5027153;28;20749;-48
2024/03/13 07:49:02;;;;;;;0.30;0.20;;;;;;;10.20;100.00;100244.41;5023940;28;20497;-49
2024/03/13 07:51:29;;;;;;;0.30;0.20;;;;;;;10.22;100.00;100247.91;5031918;28;20498;-48
2024/03/13 07:53:56;;;;;;;0.30;0.20;;;;;;;10.26;100.00;100246.03;5032247;28;20475;-48
2024/03/13 07:56:23;;;;;;;0.30;0.20;;;;;;;10.34;100.00;100249.38;5026400;28;20842;-48
2024/03/13 07:58:50;;;;;;;0.30;0.20;;;;;;;10.43;100.00;100258.88;5024876;28;20452;-48
2024/03/13 08:01:17;;;;;;;0.30;0.20;;;;;;;10.41;100.00;100250.91;5026027;28;20566;-48
2024/03/13 08:03:44;;;;;;;0.30;0.20;;;;;;;10.41;100.00;100264.22;5025384;28;20451;-49
2024/03/13 08:06:11;;;;;;;0.30;0.20;;;;;;;10.48;100.00;100256.94;5025857;28;21045;-48
2024/03/13 08:08:55;;;;;;;0.30;0.20;;;;;;;10.47;100.00;100265.84;5027427;28;20455;-48
2024/03/13 08:11:40;;;;;;;0.30;0.20;;;;;;;10.52;100.00;100266.56;5020436;28;20571;-47
2024/03/13 08:14:24;;;;;;;0.30;0.20;;;;;;;10.74;100.00;100272.13;5012275;28;20936;-48
2024/03/13 08:17:08;;;;;;;0.30;0.20;;;;;;;10.63;100.00;100273.31;5028212;28;20968;-48
2024/03/13 08:19:53;;;;;;;0.30;0.20;;;;;;;10.69;100.00;100272.28;5019979;28;20443;-49
2024/03/13 08:22:37;;;;;;;0.30;0.20;;;;;;;10.59;100.00;100273.47;5019913;28;20513;-49
2024/03/13 08:25:20;;;;;;;0.30;0.20;;;;;;;10.52;100.00;100278.06;5028510;28;20436;-49
2024/03/13 08:28:07;;;;;;;0.30;0.20;;;;;;;10.57;100.00;100281.47;5024757;28;20485;-49
2024/03/13 08:30:51;;;;;;;0.30;0.20;;;;;;;10.58;100.00;100279.69;5031940;28;20506;-49
2024/03/13 08:33:35;;;;;;;0.30;0.20;;;;;;;10.61;100.00;100288.44;5018637;28;20851;-49
2024/03/13 08:36:19;;;;;;;0.43;0.43;;;;;;;10.62;100.00;100278.69;5018554;28;20464;-49
2024/03/13 08:39:03;;;;;;;0.30;0.20;;;;;;;10.67;100.00;100284.72;5031808;28;20960;-49
2024/03/13 08:41:47;;;;;;;0.30;0.20;;;;;;;10.75;100.00;100290.69;5039380;28;20472;-49
2024/03/13 08:44:31;;;;;;;0.30;0.20;;;;;;;10.79;100.00;100291.47;5026871;28;20443;-48
2024/03/13 08:47:18;;;;;;;0.30;0.20;;;;;;;10.98;100.00;100293.56;5021131;28;20487;-49
2024/03/13 08:50:03;;;;;;;0.30;0.20;;;;;;;10.91;100.00;100294.66;5015960;28;20481;-48
2024/03/13 08:52:47;;;;;;;0.30;0.20;;;;;;;10.96;100.00;100295.41;5031633;28;21055;-48
2024/03/13 08:55:34;;;;;;;0.30;0.20;;;;;;;11.19;100.00;100301.78;5035141;28;20959;-47
2024/03/13 08:58:18;;;;;;;0.30;0.20;;;;;;;11.16;100.00;100301.88;5015404;28;20427;-48
2024/03/13 09:01:02;;;;;;;0.30;0.20;;;;;;;11.15;100.00;100309.00;5032091;28;20909;-47
2024/03/13 09:03:46;;;;;;;0.30;0.20;;;;;;;11.35;100.00;100305.72;5022251;28;20801;-48
2024/03/13 09:06:30;;;;;;;0.30;0.20;;;;;;;11.30;100.00;100312.09;5015279;28;20432;-48
2024/03/13 09:08:58;;;;;;;0.30;0.20;;;;;;;11.25;100.00;100314.91;5030308;28;20506;-48
2024/03/13 09:11:24;;;;;;;0.30;0.20;;;;;;;11.24;100.00;100319.38;5026213;28;20491;-48
2024/03/13 09:13:51;;;;;;;0.30;0.20;;;;;;;11.40;100.00;100309.13;5030724;28;20451;-48
2024/03/13 09:16:18;;;;;;;0.30;0.20;;;;;;;11.69;100.00;100320.63;5025868;28;20515;-48
2024/03/13 09:18:44;;;;;;;0.30;0.20;;;;;;;11.80;100.00;100313.19;5030581;28;20951;-48
2024/03/13 09:21:12;;;;;;;0.30;0.20;;;;;;;11.55;100.00;100318.41;5025870;28;20464;-48
2024/03/13 09:23:39;;;;;;;0.30;0.20;;;;;;;11.46;100.00;100314.22;5030916;28;20983;-48
2024/03/13 09:26:05;;;;;;;0.30;0.20;;;;;;;11.64;100.00;100314.56;5025033;28;20472;-49
2024/03/13 09:28:32;;;;;;;0.30;0.20;;;;;;;11.65;100.00;100310.97;5031028;28;20455;-48
2024/03/13 09:31:01;;;;;;;0.30;0.20;;;;;;;11.48;100.00;100324.81;5024644;28;20496;-48
2024/03/13 09:33:28;;;;;;;0.30;0.20;;;;;;;11.54;100.00;100327.31;5031674;28;20868;-49
2024/03/13 09:35:56;;;;;;;0.30;0.20;;;;;;;11.58;100.00;100323.63;5016841;28;20940;-48
2024/03/13 09:38:24;;;;;;;0.30;0.20;;;;;;;11.52;100.00;100319.38;5021205;28;20451;-48
2024/03/13 09:40:51;;;;;;;0.30;0.20;;;;;;;11.55;100.00;100316.59;5045784;28;20975;-49
2024/03/13 09:43:22;;;;;;;0.30;0.20;;;;;;;11.91;100.00;100313.66;5022777;28;20460;-49
2024/03/13 09:45:50;;;;;;;0.30;0.20;;;;;;;12.18;100.00;100319.84;5034550;28;20467;-49
2024/03/13 09:48:18;;;;;;;0.30;0.20;;;;;;;11.92;100.00;100320.75;5021010;28;20530;-48
2024/03/13 09:50:45;;;;;;;0.30;0.20;;;;;;;12.15;100.00;100323.50;5033858;28;20497;-48
2024/03/13 09:53:21;;;;;;;0.30;0.20;;;;;;;12.38;100.00;100333.38;5034215;28;20447;-48
2024/03/13 09:55:49;;;;;;;0.40;0.20;;;;;;;12.25;100.00;100331.19;5032586;28;20542;-50
2024/03/13 09:58:16;;;;;;;0.30;0.20;;;;;;;12.58;100.00;100329.97;5022250;28;20513;-49
2024/03/13 10:00:43;;;;;;;0.30;0.20;;;;;;;12.36;100.00;100337.03;5051529;22;20495;-49
2024/03/13 10:03:32;;;;;;;0.30;0.20;;;;;;;12.81;100.00;100325.59;5045126;28;20444;-50
2024/03/13 10:06:10;;;;;;;0.30;0.20;;;;;;;12.49;100.00;100330.31;5032066;28;20828;-49
2024/03/13 10:08:40;;;;;;;0.30;0.20;;;;;;;12.29;100.00;100346.13;5040274;28;20439;-49
2024/03/13 10:11:14;;;;;;;0.30;0.20;;;;;;;12.13;100.00;100337.81;5053740;28;20494;-50
2024/03/13 10:13:43;;;;;;;0.30;0.20;;;;;;;12.05;100.00;100337.19;5053993;28;20447;-50
2024/03/13 10:16:12;;;;;;;0.30;0.20;;;;;;;11.94;100.00;100340.22;5053655;28;20446;-49
2024/03/13 10:18:47;;;;;;;0.30;0.20;;;;;;;12.19;100.00;100336.72;5053324;28;20829;-50
2024/03/13 10:21:25;;;;;;;0.30;0.20;;;;;;;12.08;100.00;100331.78;5053623;28;20463;-49
2024/03/13 10:23:55;;;;;;;0.30;0.20;;;;;;;12.16;100.00;100327.91;5053485;28;20453;-50
2024/03/13 10:26:23;;;;;;;0.30;0.20;;;;;;;12.28;100.00;100328.41;5053532;28;20450;-49
2024/03/13 10:28:50;;;;;;;0.30;0.20;;;;;;;12.29;100.00;100333.69;5053342;28;20501;-50
2024/03/13 10:31:17;;;;;;;0.30;0.20;;;;;;;12.42;100.00;100340.31;5052937;28;20490;-49
2024/03/13 10:33:44;;;;;;;0.30;0.20;;;;;;;12.54;100.00;100332.81;5053438;28;20461;-50
2024/03/13 10:36:17;;;;;;;0.30;0.20;;;;;;;12.74;100.00;100339.16;5053276;28;20475;-49
2024/03/13 10:38:47;;;;;;;0.30;0.20;;;;;;;12.65;100.00;100343.97;5053351;28;20546;-50
2024/03/13 10:41:13;;;;;;;0.30;0.20;;;;;;;13.11;100.00;100335.13;5048218;28;20463;-50
2024/03/13 10:43:41;;;;;;;0.30;0.20;;;;;;;13.21;100.00;100341.00;5053035;28;20489;-50
2024/03/13 10:46:11;;;;;;;0.30;0.20;;;;;;;13.02;100.00;100347.03;5052789;28;20871;-51
2024/03/13 10:48:41;;;;;;;0.30;0.20;;;;;;;12.99;100.00;100336.44;5053124;28;20454;-50
2024/03/13 10:51:12;;;;;;;0.30;0.20;;;;;;;13.40;100.00;100344.69;5052622;28;20551;-51
2024/03/13 10:53:39;;;;;;;0.97;0.97;;;;;;;13.10;100.00;100344.06;5052930;28;20816;-51
2024/03/13 10:56:14;;;;;;;0.30;0.20;;;;;;;12.99;100.00;100341.78;5052744;28;21005;-51
2024/03/13 10:58:47;;;;;;;0.30;0.20;;;;;;;13.02;100.00;100341.69;5052728;28;20553;-51
2024/03/13 11:01:17;;;;;;;0.30;0.20;;;;;;;13.22;100.00;100345.41;5052397;28;20903;-51
2024/03/13 11:03:46;;;;;;;0.30;0.20;;;;;;;13.33;100.00;100340.53;5052857;28;20446;-49
2024/03/13 11:06:14;;;;;;;0.30;0.20;;;;;;;13.14;100.00;100342.13;5052638;28;20534;-48
2024/03/13 11:08:42;;;;;;;0.30;0.20;;;;;;;13.01;100.00;100342.59;5052435;28;20526;-50
2024/03/13 11:11:12;;;;;;;0.30;0.20;;;;;;;13.40;100.00;100347.38;5052413;28;20498;-49
2024/03/13 11:13:58;;;;;;;0.30;0.20;;;;;;;13.09;100.00;100341.44;5052704;28;20505;-49
2024/03/13 11:16:26;;;;;;;0.30;0.20;;;;;;;13.16;100.00;100342.97;5052537;28;20430;-49
2024/03/13 11:18:55;;;;;;;0.30;0.20;;;;;;;13.19;100.00;100330.41;5052350;28;21006;-51
2024/03/13 11:21:47;;;;;;;0.30;0.20;;;;;;;12.94;100.00;100332.22;5052222;28;20463;-50
2024/03/13 11:24:23;;;;;;;0.30;0.20;;;;;;;13.08;100.00;100335.25;5052576;28;20594;-51
2024/03/13 11:26:52;;;;;;;0.30;0.20;;;;;;;13.19;100.00;100333.06;5052507;28;20463;-51
2024/03/13 11:29:33;;;;;;;0.30;0.20;;;;;;;13.47;100.00;100327.53;5034529;28;20906;-51
2024/03/13 11:32:00;;;;;;;0.30;0.20;;;;;;;13.64;100.00;100327.69;5052213;28;20545;-51
2024/03/13 11:34:27;;;;;;;0.30;0.20;;;;;;;14.15;100.00;100329.16;5052423;28;20500;-51
2024/03/13 11:36:55;;;;;;;0.30;0.20;;;;;;;13.94;100.00;100332.72;5052389;28;20474;-50
2024/03/13 11:39:22;;;;;;;0.30;0.20;;;;;;;14.12;100.00;100331.09;5052350;28;20454;-50
2024/03/13 11:41:49;;;;;;;0.30;0.20;;;;;;;14.17;100.00;100326.41;5052123;28;20466;-51
2024/03/13 11:44:18;;;;;;;0.30;0.20;;;;;;;14.11;100.00;100326.66;5052118;28;20534;-50
2024/03/13 11:46:48;;;;;;;0.30;0.20;;;;;;;14.00;100.00;100320.91;5052365;28;20451;-51
2024/03/13 11:49:15;;;;;;;0.30;0.20;;;;;;;13.87;100.00;100313.41;5052010;28;20979;-50
2024/03/13 11:52:04;;;;;;;0.30;0.20;;;;;;;14.01;100.00;100314.63;5051798;28;20518;-51